Time;durP1;ratioP1;P1;durP2;ratioP2;P2;SDS_P1;SDS_P2;PMS_P1;PMS_P2;Temp;Humidity;BMP_temperature;BMP_pressure;BME280_temperature;BME280_humidity;BME280_pressure;Samples;Min_cycle;Max_cycle;Signal;HPM_P1;HPM_P2
2023/06/11 00:02:21;;;;;;;8.80;6.88;;;;;;;;;;5032591;28;20488;-81
2023/06/11 00:04:49;;;;;;;10.77;7.30;;;;;;;;;;4993958;28;20090;-81
2023/06/11 00:07:17;;;;;;;8.77;6.97;;;;;;;;;;5026027;28;20104;-81
2023/06/11 00:09:44;;;;;;;10.27;7.43;;;;;;;;;;5036905;28;20138;-81
2023/06/11 00:12:10;;;;;;;8.70;7.43;;;;;;;;;;5037905;28;20077;-81
2023/06/11 00:14:37;;;;;;;9.70;7.18;;;;;;;;;;5038432;28;20054;-81
2023/06/11 00:17:07;;;;;;;9.55;6.85;;;;;;;;;;5038629;28;20053;-81
2023/06/11 00:19:33;;;;;;;9.02;7.13;;;;;;;;;;5038237;28;20111;-82
2023/06/11 00:22:02;;;;;;;9.80;7.95;;;;;;;;;;5038964;28;20049;-82
2023/06/11 00:24:30;;;;;;;9.13;6.93;;;;;;;;;;5038784;28;20582;-82
2023/06/11 00:26:59;;;;;;;9.23;6.93;;;;;;;;;;5037988;28;20061;-82
2023/06/11 00:29:26;;;;;;;9.43;7.43;;;;;;;;;;5037996;28;20092;-81
2023/06/11 00:31:53;;;;;;;9.05;7.28;;;;;;;;;;5038843;28;20085;-82
2023/06/11 00:34:20;;;;;;;9.63;7.25;;;;;;;;;;5038459;28;20049;-80
2023/06/11 00:36:46;;;;;;;9.77;7.45;;;;;;;;;;5036052;28;20045;-81
2023/06/11 00:39:13;;;;;;;9.27;7.40;;;;;;;;;;5034115;28;20073;-81
2023/06/11 00:41:45;;;;;;;10.82;8.10;;;;;;;;;;5037780;28;20115;-81
2023/06/11 00:44:17;;;;;;;8.50;6.55;;;;;;;;;;5024580;28;20056;-82
2023/06/11 00:46:44;;;;;;;9.57;7.43;;;;;;;;;;5027671;28;20132;-83
2023/06/11 00:49:12;;;;;;;9.05;7.30;;;;;;;;;;5036450;28;20124;-82
2023/06/11 00:51:41;;;;;;;9.00;6.90;;;;;;;;;;5042883;28;20091;-82
2023/06/11 00:54:08;;;;;;;9.02;7.53;;;;;;;;;;5046703;28;20053;-82
2023/06/11 00:56:39;;;;;;;10.32;8.07;;;;;;;;;;5047906;28;20049;-81
2023/06/11 00:59:08;;;;;;;10.50;7.82;;;;;;;;;;5044824;28;20045;-81
2023/06/11 01:01:41;;;;;;;9.80;7.68;;;;;;;;;;5040281;28;20083;-82
2023/06/11 01:04:13;;;;;;;9.27;7.40;;;;;;;;;;5039201;28;20084;-81
2023/06/11 01:06:46;;;;;;;9.55;7.65;;;;;;;;;;5041224;28;20046;-81
2023/06/11 01:09:13;;;;;;;10.30;7.55;;;;;;;;;;5038408;28;20056;-81
2023/06/11 01:11:41;;;;;;;9.55;7.40;;;;;;;;;;5038619;28;20041;-82
2023/06/11 01:14:12;;;;;;;9.57;7.38;;;;;;;;;;5038936;28;20049;-82
2023/06/11 01:16:45;;;;;;;8.80;6.53;;;;;;;;;;5038731;28;20046;-82
2023/06/11 01:19:23;;;;;;;10.93;7.68;;;;;;;;;;5037657;28;20471;-82
2023/06/11 01:21:54;;;;;;;10.38;7.50;;;;;;;;;;4999033;28;20077;-82
2023/06/11 01:24:31;;;;;;;9.80;8.18;;;;;;;;;;4999016;28;20513;-82
2023/06/11 01:27:09;;;;;;;10.60;7.93;;;;;;;;;;4998929;28;20056;-82
2023/06/11 01:29:45;;;;;;;9.55;7.55;;;;;;;;;;4999098;28;20517;-82
2023/06/11 01:32:12;;;;;;;8.77;7.57;;;;;;;;;;4998589;28;20081;-82
2023/06/11 01:34:41;;;;;;;10.93;8.20;;;;;;;;;;4998424;28;20107;-82
2023/06/11 01:37:09;;;;;;;11.00;8.82;;;;;;;;;;4998087;28;20046;-82
2023/06/11 01:39:35;;;;;;;10.95;8.30;;;;;;;;;;4997958;28;20129;-82
2023/06/11 01:42:02;;;;;;;11.07;7.93;;;;;;;;;;4998107;28;20046;-82
2023/06/11 01:44:29;;;;;;;10.05;8.10;;;;;;;;;;5024059;28;20052;-81
2023/06/11 01:46:57;;;;;;;11.77;8.45;;;;;;;;;;5036239;28;20419;-82
2023/06/11 01:49:23;;;;;;;10.88;8.57;;;;;;;;;;5036724;28;20424;-82
2023/06/11 01:51:50;;;;;;;12.82;8.52;;;;;;;;;;5037304;28;20073;-82
2023/06/11 01:54:17;;;;;;;10.23;8.32;;;;;;;;;;5037028;28;20132;-82
2023/06/11 01:56:44;;;;;;;10.00;8.23;;;;;;;;;;5037248;28;20149;-82
2023/06/11 01:59:12;;;;;;;10.27;8.57;;;;;;;;;;5024815;28;20109;-82
2023/06/11 02:01:40;;;;;;;10.85;9.00;;;;;;;;;;5017423;28;20093;-82
2023/06/11 02:04:08;;;;;;;12.40;8.25;;;;;;;;;;5017006;28;20106;-82
2023/06/11 02:06:35;;;;;;;12.25;8.20;;;;;;;;;;5017116;28;20408;-81
2023/06/11 02:09:01;;;;;;;11.65;8.73;;;;;;;;;;5017037;28;20726;-81
2023/06/11 02:11:28;;;;;;;11.00;8.57;;;;;;;;;;5016759;28;20050;-81
2023/06/11 02:13:54;;;;;;;10.68;8.93;;;;;;;;;;5016962;28;20049;-81
2023/06/11 02:16:21;;;;;;;12.27;9.25;;;;;;;;;;5017112;28;20052;-81
2023/06/11 02:18:48;;;;;;;11.68;8.68;;;;;;;;;;5016632;28;20109;-80
2023/06/11 02:21:16;;;;;;;11.30;8.90;;;;;;;;;;5016059;28;20042;-82
2023/06/11 02:23:42;;;;;;;15.43;10.05;;;;;;;;;;5017526;28;20054;-82
2023/06/11 02:26:09;;;;;;;12.75;8.68;;;;;;;;;;5019947;28;20046;-83
2023/06/11 02:28:36;;;;;;;14.82;9.45;;;;;;;;;;5019096;28;20078;-83
2023/06/11 02:31:02;;;;;;;12.27;9.50;;;;;;;;;;5036578;28;20042;-82
2023/06/11 02:33:29;;;;;;;11.77;9.43;;;;;;;;;;5015451;28;20409;-82
2023/06/11 02:35:56;;;;;;;11.38;9.15;;;;;;;;;;5014384;28;20110;-82
2023/06/11 02:38:23;;;;;;;12.23;9.95;;;;;;;;;;5014262;28;20052;-82
2023/06/11 02:40:50;;;;;;;11.70;9.75;;;;;;;;;;5013564;28;20050;-82
2023/06/11 02:43:17;;;;;;;13.55;10.45;;;;;;;;;;5015147;28;20054;-83
2023/06/11 02:45:43;;;;;;;11.70;9.32;;;;;;;;;;5034525;28;20045;-82
2023/06/11 02:48:10;;;;;;;12.55;9.73;;;;;;;;;;5033227;28;20052;-82
2023/06/11 02:50:37;;;;;;;13.20;9.90;;;;;;;;;;5033659;28;20072;-82
2023/06/11 02:53:03;;;;;;;11.20;9.38;;;;;;;;;;5043212;28;20033;-82
2023/06/11 02:55:31;;;;;;;14.05;9.30;;;;;;;;;;5049330;28;20049;-82
2023/06/11 02:57:58;;;;;;;11.73;9.88;;;;;;;;;;5036338;28;20100;-83
2023/06/11 03:00:25;;;;;;;12.50;9.85;;;;;;;;;;5017447;28;20077;-83
2023/06/11 03:02:52;;;;;;;12.85;9.77;;;;;;;;;;5016967;28;20191;-83
2023/06/11 03:05:19;;;;;;;13.13;10.38;;;;;;;;;;5015334;28;20052;-82
2023/06/11 03:07:46;;;;;;;12.60;9.88;;;;;;;;;;5012453;28;20053;-80
2023/06/11 03:10:12;;;;;;;12.77;9.88;;;;;;;;;;5013850;28;20409;-81
2023/06/11 03:12:40;;;;;;;13.55;10.93;;;;;;;;;;5014458;28;20133;-81
2023/06/11 03:15:08;;;;;;;13.85;10.73;;;;;;;;;;5014284;28;20049;-81
2023/06/11 03:17:34;;;;;;;11.40;9.63;;;;;;;;;;5014503;28;20057;-81
2023/06/11 03:20:01;;;;;;;13.13;9.98;;;;;;;;;;5014270;28;20421;-82
2023/06/11 03:22:28;;;;;;;11.18;9.48;;;;;;;;;;5014124;28;20061;-81
2023/06/11 03:24:54;;;;;;;14.13;9.88;;;;;;;;;;5014855;28;20176;-81
2023/06/11 03:27:21;;;;;;;12.82;9.90;;;;;;;;;;5028660;28;20042;-80
2023/06/11 03:29:49;;;;;;;13.15;9.70;;;;;;;;;;5036713;28;20038;-81
2023/06/11 03:32:16;;;;;;;12.32;10.20;;;;;;;;;;5036647;28;20042;-81
2023/06/11 03:34:42;;;;;;;11.82;9.85;;;;;;;;;;5027419;28;20113;-81
2023/06/11 03:37:09;;;;;;;13.30;10.68;;;;;;;;;;5017651;28;20045;-82
2023/06/11 03:39:36;;;;;;;13.27;11.13;;;;;;;;;;5016955;28;20085;-82
2023/06/11 03:42:02;;;;;;;13.40;10.20;;;;;;;;;;5020919;28;20046;-83
2023/06/11 03:44:29;;;;;;;12.38;9.88;;;;;;;;;;5020836;28;20045;-81
2023/06/11 03:46:57;;;;;;;13.93;10.30;;;;;;;;;;5020336;28;20077;-82
2023/06/11 03:49:24;;;;;;;12.63;9.90;;;;;;;;;;5019893;28;20053;-82
2023/06/11 03:51:50;;;;;;;14.43;10.10;;;;;;;;;;5020041;28;20098;-83
2023/06/11 03:54:17;;;;;;;13.20;10.07;;;;;;;;;;5020345;28;20053;-82
2023/06/11 03:56:44;;;;;;;12.70;9.80;;;;;;;;;;5019672;28;20456;-82
2023/06/11 03:59:10;;;;;;;13.25;10.10;;;;;;;;;;5018726;28;20050;-82
2023/06/11 04:01:37;;;;;;;11.85;9.40;;;;;;;;;;5019430;28;20050;-82
2023/06/11 04:04:05;;;;;;;13.35;9.52;;;;;;;;;;5018800;28;20050;-82
2023/06/11 04:06:36;;;;;;;13.52;11.05;;;;;;;;;;5018086;28;20548;-81
2023/06/11 04:09:03;;;;;;;12.32;9.60;;;;;;;;;;5018127;28;20485;-81
2023/06/11 04:11:30;;;;;;;14.52;9.80;;;;;;;;;;5018050;28;20050;-81
2023/06/11 04:13:57;;;;;;;14.88;10.73;;;;;;;;;;5026544;28;20072;-82
2023/06/11 04:16:23;;;;;;;12.63;9.70;;;;;;;;;;5038321;28;20133;-81
2023/06/11 04:18:50;;;;;;;12.88;10.30;;;;;;;;;;5037593;28;20718;-80
2023/06/11 04:21:18;;;;;;;13.90;10.65;;;;;;;;;;5046329;22;20510;-79
2023/06/11 04:23:45;;;;;;;12.27;9.93;;;;;;;;;;5037622;28;20061;-78
2023/06/11 04:26:15;;;;;;;11.88;9.77;;;;;;;;;;5037099;28;20052;-77
2023/06/11 04:28:44;;;;;;;14.18;10.68;;;;;;;;;;5034701;28;20613;-77
2023/06/11 04:31:11;;;;;;;15.00;10.27;;;;;;;;;;5034785;28;20053;-77
2023/06/11 04:33:38;;;;;;;12.90;10.13;;;;;;;;;;5035699;28;20530;-78
2023/06/11 04:36:07;;;;;;;13.60;10.00;;;;;;;;;;5035782;28;20077;-78
2023/06/11 04:38:36;;;;;;;13.48;10.85;;;;;;;;;;5034311;28;20511;-77
2023/06/11 04:41:05;;;;;;;11.70;9.70;;;;;;;;;;5034486;28;20048;-77
2023/06/11 04:43:33;;;;;;;13.93;9.57;;;;;;;;;;5034298;28;20385;-78
2023/06/11 04:46:00;;;;;;;13.25;10.35;;;;;;;;;;5034247;28;20516;-77
2023/06/11 04:48:28;;;;;;;11.95;9.80;;;;;;;;;;5034165;28;20073;-76
2023/06/11 04:50:55;;;;;;;13.23;9.75;;;;;;;;;;5033702;28;20140;-77
2023/06/11 04:53:22;;;;;;;12.85;9.98;;;;;;;;;;5035009;28;20081;-77
2023/06/11 04:55:54;;;;;;;13.63;9.85;;;;;;;;;;5035562;28;20064;-77
2023/06/11 04:58:21;;;;;;;13.07;10.05;;;;;;;;;;5030609;28;20037;-78
2023/06/11 05:00:48;;;;;;;11.93;9.55;;;;;;;;;;5014025;28;20445;-77
2023/06/11 05:03:16;;;;;;;12.73;9.80;;;;;;;;;;5014736;28;20050;-78
2023/06/11 05:05:49;;;;;;;13.75;9.85;;;;;;;;;;5014999;28;20096;-78
2023/06/11 05:08:16;;;;;;;11.73;9.20;;;;;;;;;;5014722;28;20046;-78
2023/06/11 05:10:43;;;;;;;12.52;9.98;;;;;;;;;;5015330;28;20050;-78
2023/06/11 05:13:11;;;;;;;10.98;9.30;;;;;;;;;;5015205;28;20046;-79
2023/06/11 05:15:37;;;;;;;11.70;9.40;;;;;;;;;;5014828;28;20129;-78
2023/06/11 05:18:04;;;;;;;11.60;9.20;;;;;;;;;;5014628;28;20137;-77
2023/06/11 05:20:31;;;;;;;11.93;9.80;;;;;;;;;;5014901;28;20104;-78
2023/06/11 05:22:59;;;;;;;12.63;10.25;;;;;;;;;;5017785;28;20579;-78
2023/06/11 05:25:28;;;;;;;11.10;9.35;;;;;;;;;;5018539;28;20056;-79
2023/06/11 05:27:55;;;;;;;12.00;9.70;;;;;;;;;;5015800;28;20072;-77
2023/06/11 05:30:25;;;;;;;11.23;8.90;;;;;;;;;;5014706;28;20489;-79
2023/06/11 05:32:53;;;;;;;12.95;9.82;;;;;;;;;;5016138;28;20042;-78
2023/06/11 05:35:19;;;;;;;11.75;10.23;;;;;;;;;;5016485;28;20263;-78
2023/06/11 05:37:46;;;;;;;11.02;9.63;;;;;;;;;;5019985;28;20050;-78
2023/06/11 05:40:13;;;;;;;11.02;9.52;;;;;;;;;;5018178;28;20072;-77
2023/06/11 05:42:40;;;;;;;11.73;9.80;;;;;;;;;;5016056;28;20532;-78
2023/06/11 05:45:07;;;;;;;12.25;10.07;;;;;;;;;;5015043;28;20568;-77
2023/06/11 05:47:35;;;;;;;12.38;9.95;;;;;;;;;;5015839;28;20045;-77
2023/06/11 05:50:02;;;;;;;11.60;10.20;;;;;;;;;;5015421;28;20056;-77
2023/06/11 05:52:28;;;;;;;13.10;9.82;;;;;;;;;;5014900;28;20050;-78
2023/06/11 05:54:55;;;;;;;11.82;10.02;;;;;;;;;;5014456;28;20048;-77
2023/06/11 05:57:23;;;;;;;12.18;9.75;;;;;;;;;;5013859;28;20129;-77
2023/06/11 05:59:50;;;;;;;11.38;9.45;;;;;;;;;;5012922;28;20061;-78
2023/06/11 06:02:17;;;;;;;10.13;8.82;;;;;;;;;;5014150;28;20064;-79
2023/06/11 06:04:47;;;;;;;11.25;9.40;;;;;;;;;;5013373;28;20144;-78
2023/06/11 06:07:13;;;;;;;12.13;9.70;;;;;;;;;;5014395;28;20050;-78
2023/06/11 06:09:40;;;;;;;11.43;9.18;;;;;;;;;;5013092;28;20054;-78
2023/06/11 06:12:08;;;;;;;10.90;8.85;;;;;;;;;;5013620;28;20125;-77
2023/06/11 06:14:35;;;;;;;12.52;9.50;;;;;;;;;;5014514;28;20097;-78
2023/06/11 06:17:02;;;;;;;11.05;9.07;;;;;;;;;;5013163;28;20050;-78
2023/06/11 06:19:29;;;;;;;10.18;9.07;;;;;;;;;;5013977;28;20580;-78
2023/06/11 06:21:57;;;;;;;12.00;8.90;;;;;;;;;;5015292;28;20081;-79
2023/06/11 06:24:23;;;;;;;12.88;9.57;;;;;;;;;;5015581;28;20050;-79
2023/06/11 06:26:56;;;;;;;9.80;8.77;;;;;;;;;;5023552;28;20081;-79
2023/06/11 06:29:23;;;;;;;11.60;10.05;;;;;;;;;;5015397;28;20412;-79
2023/06/11 06:31:50;;;;;;;12.60;9.70;;;;;;;;;;5015361;28;20046;-77
2023/06/11 06:34:16;;;;;;;11.90;9.52;;;;;;;;;;5018050;28;20125;-77
2023/06/11 06:36:43;;;;;;;11.80;9.13;;;;;;;;;;5015950;28;20050;-76
2023/06/11 06:39:11;;;;;;;11.88;8.90;;;;;;;;;;5013946;28;20052;-79
2023/06/11 06:41:38;;;;;;;11.15;8.95;;;;;;;;;;5014794;28;20073;-78
2023/06/11 06:44:04;;;;;;;11.68;9.05;;;;;;;;;;5014436;28;20511;-79
2023/06/11 06:46:31;;;;;;;12.00;10.02;;;;;;;;;;5015640;28;20144;-78
2023/06/11 06:48:58;;;;;;;10.20;8.55;;;;;;;;;;5015837;28;20046;-80
2023/06/11 06:51:24;;;;;;;10.07;9.00;;;;;;;;;;5019317;28;20105;-78
2023/06/11 06:53:51;;;;;;;12.10;9.13;;;;;;;;;;5018264;28;20089;-79
2023/06/11 06:56:19;;;;;;;11.02;9.35;;;;;;;;;;5016460;28;20424;-80
2023/06/11 06:58:46;;;;;;;10.23;9.13;;;;;;;;;;5017623;28;20508;-79
2023/06/11 07:01:12;;;;;;;10.43;8.43;;;;;;;;;;5018188;28;20084;-79
2023/06/11 07:03:41;;;;;;;10.63;8.98;;;;;;;;;;5018406;28;20104;-79
2023/06/11 07:06:08;;;;;;;10.38;8.13;;;;;;;;;;5018784;28;20555;-79
2023/06/11 07:08:35;;;;;;;11.40;8.80;;;;;;;;;;5023049;28;20394;-79
2023/06/11 07:11:01;;;;;;;10.93;9.18;;;;;;;;;;5022184;28;20046;-79
2023/06/11 07:13:29;;;;;;;10.82;8.82;;;;;;;;;;5020511;28;20046;-80
2023/06/11 07:15:56;;;;;;;11.18;9.50;;;;;;;;;;5016952;28;20074;-79
2023/06/11 07:18:24;;;;;;;10.85;9.52;;;;;;;;;;5016007;28;20050;-79
2023/06/11 07:20:51;;;;;;;10.75;9.27;;;;;;;;;;5019891;28;20107;-79
2023/06/11 07:23:18;;;;;;;10.55;9.05;;;;;;;;;;5019234;28;20092;-80
2023/06/11 07:25:45;;;;;;;10.02;8.68;;;;;;;;;;5018875;28;20468;-79
2023/06/11 07:28:12;;;;;;;10.77;8.82;;;;;;;;;;5018668;28;20054;-79
2023/06/11 07:30:40;;;;;;;10.05;8.85;;;;;;;;;;5018475;28;20054;-79
2023/06/11 07:33:07;;;;;;;9.75;8.70;;;;;;;;;;5019090;28;20084;-80
2023/06/11 07:35:34;;;;;;;9.50;8.27;;;;;;;;;;5017415;28;20515;-80
2023/06/11 07:38:00;;;;;;;9.30;7.80;;;;;;;;;;5016615;28;20073;-79
2023/06/11 07:40:27;;;;;;;10.02;8.98;;;;;;;;;;5015567;28;20084;-79
2023/06/11 07:42:53;;;;;;;8.65;7.53;;;;;;;;;;5013502;28;20413;-79
2023/06/11 07:45:20;;;;;;;9.23;8.07;;;;;;;;;;5013533;28;20081;-77
2023/06/11 07:47:48;;;;;;;10.77;7.90;;;;;;;;;;5016169;28;20061;-77
2023/06/11 07:50:15;;;;;;;8.50;7.65;;;;;;;;;;5015267;28;20089;-78
2023/06/11 07:52:42;;;;;;;8.50;7.60;;;;;;;;;;5016129;28;20046;-77
2023/06/11 07:55:08;;;;;;;8.82;7.93;;;;;;;;;;5015272;28;20053;-78
2023/06/11 07:57:35;;;;;;;9.68;7.95;;;;;;;;;;5014941;28;20531;-79
2023/06/11 08:00:03;;;;;;;10.77;8.63;;;;;;;;;;5015043;28;20050;-78
2023/06/11 08:02:29;;;;;;;11.50;7.53;;;;;;;;;;5014621;28;20050;-77
2023/06/11 08:04:57;;;;;;;8.90;7.90;;;;;;;;;;5014434;28;20054;-78
2023/06/11 08:07:24;;;;;;;9.73;7.82;;;;;;;;;;5014739;28;20046;-77
2023/06/11 08:09:51;;;;;;;9.13;7.53;;;;;;;;;;5013346;28;20052;-78
2023/06/11 08:12:17;;;;;;;8.35;7.50;;;;;;;;;;5013787;28;20052;-77
2023/06/11 08:14:44;;;;;;;9.75;7.43;;;;;;;;;;5015149;28;20404;-76
2023/06/11 08:17:10;;;;;;;8.43;7.53;;;;;;;;;;5015500;28;20049;-77
2023/06/11 08:19:38;;;;;;;9.07;7.32;;;;;;;;;;5015386;28;20042;-77
2023/06/11 08:22:07;;;;;;;8.70;7.65;;;;;;;;;;5015403;28;20064;-77
2023/06/11 08:24:33;;;;;;;9.32;7.20;;;;;;;;;;5013973;28;20046;-78
2023/06/11 08:27:00;;;;;;;8.98;7.00;;;;;;;;;;5017558;28;20493;-78
2023/06/11 08:29:27;;;;;;;9.05;7.18;;;;;;;;;;5019327;28;20085;-78
2023/06/11 08:31:53;;;;;;;9.32;7.35;;;;;;;;;;5019037;28;20104;-76
2023/06/11 08:34:20;;;;;;;9.38;6.70;;;;;;;;;;5017270;28;20585;-77
2023/06/11 08:36:47;;;;;;;8.60;6.80;;;;;;;;;;5018067;28;20046;-78
2023/06/11 08:39:15;;;;;;;8.00;6.65;;;;;;;;;;5016562;28;20132;-78
2023/06/11 08:41:41;;;;;;;8.57;7.03;;;;;;;;;;5016576;28;20565;-78
2023/06/11 08:44:08;;;;;;;10.02;7.38;;;;;;;;;;5016949;28;20069;-76
2023/06/11 08:46:36;;;;;;;8.63;7.40;;;;;;;;;;5016837;28;20077;-77
2023/06/11 08:49:06;;;;;;;8.35;6.82;;;;;;;;;;5015590;28;20485;-77
2023/06/11 08:51:36;;;;;;;7.60;6.38;;;;;;;;;;5017770;28;20046;-77
2023/06/11 08:54:04;;;;;;;6.80;6.00;;;;;;;;;;5018818;28;20133;-78
2023/06/11 08:56:33;;;;;;;9.45;7.28;;;;;;;;;;5016916;28;20073;-78
2023/06/11 08:59:00;;;;;;;7.57;6.78;;;;;;;;;;5016240;28;20046;-78
2023/06/11 09:01:28;;;;;;;6.70;5.90;;;;;;;;;;5017390;28;20508;-78
2023/06/11 09:03:54;;;;;;;6.93;6.22;;;;;;;;;;5017770;28;20092;-78
2023/06/11 09:06:21;;;;;;;8.98;6.65;;;;;;;;;;5017796;28;20500;-78
2023/06/11 09:08:57;;;;;;;9.95;7.20;;;;;;;;;;5017566;28;20092;-77
2023/06/11 09:11:24;;;;;;;9.00;6.50;;;;;;;;;;5017747;28;20046;-78
2023/06/11 09:13:56;;;;;;;6.20;5.50;;;;;;;;;;5018480;28;20081;-77
2023/06/11 09:16:22;;;;;;;7.53;5.55;;;;;;;;;;5016064;28;20644;-77
2023/06/11 09:18:49;;;;;;;8.32;6.00;;;;;;;;;;5015845;28;20050;-77
2023/06/11 09:21:16;;;;;;;7.15;6.45;;;;;;;;;;5015723;28;20081;-77
2023/06/11 09:23:45;;;;;;;6.95;6.25;;;;;;;;;;5016466;28;20045;-77
2023/06/11 09:26:17;;;;;;;6.80;6.00;;;;;;;;;;5015437;28;20089;-77
2023/06/11 09:28:44;;;;;;;6.70;6.00;;;;;;;;;;5015655;28;20054;-77
2023/06/11 09:31:12;;;;;;;7.25;6.03;;;;;;;;;;5016020;28;20061;-77
2023/06/11 09:33:38;;;;;;;8.00;6.20;;;;;;;;;;5016431;28;20551;-77
2023/06/11 09:36:05;;;;;;;7.45;6.10;;;;;;;;;;5016431;28;20045;-78
2023/06/11 09:38:34;;;;;;;8.07;5.80;;;;;;;;;;5013129;28;20096;-78
2023/06/11 09:41:01;;;;;;;7.90;6.53;;;;;;;;;;5014978;28;20049;-77
2023/06/11 09:43:28;;;;;;;8.07;6.32;;;;;;;;;;5014833;28;20056;-77
2023/06/11 09:45:55;;;;;;;7.18;5.80;;;;;;;;;;5014542;28;20150;-76
2023/06/11 09:48:24;;;;;;;7.25;6.00;;;;;;;;;;5017320;28;20046;-77
2023/06/11 09:50:53;;;;;;;8.48;6.60;;;;;;;;;;5017482;28;20045;-76
2023/06/11 09:53:21;;;;;;;6.97;6.28;;;;;;;;;;5037220;28;20101;-77
2023/06/11 09:55:50;;;;;;;6.88;5.75;;;;;;;;;;5024228;28;20478;-77
2023/06/11 09:58:21;;;;;;;6.85;6.15;;;;;;;;;;5017149;28;20054;-78
2023/06/11 10:00:48;;;;;;;8.95;6.30;;;;;;;;;;5015425;28;20111;-78
2023/06/11 10:03:16;;;;;;;6.95;6.25;;;;;;;;;;5014800;28;20438;-78
2023/06/11 10:05:44;;;;;;;7.20;6.10;;;;;;;;;;5014187;28;20049;-78
2023/06/11 10:08:15;;;;;;;6.65;5.95;;;;;;;;;;5013336;28;20081;-78
2023/06/11 10:10:45;;;;;;;7.00;6.30;;;;;;;;;;5013592;28;20054;-78
2023/06/11 10:13:12;;;;;;;6.25;5.30;;;;;;;;;;5013651;28;20137;-78
2023/06/11 10:15:39;;;;;;;8.02;6.00;;;;;;;;;;5013711;28;20050;-77
2023/06/11 10:18:13;;;;;;;7.28;5.35;;;;;;;;;;5013683;28;20545;-77
2023/06/11 10:20:53;;;;;;;6.80;5.22;;;;;;;;;;5013321;28;20420;-77
2023/06/11 10:23:21;;;;;;;7.28;5.70;;;;;;;;;;5034001;22;20051;-62
2023/06/11 10:25:54;;;;;;;6.95;5.25;;;;;;;;;;5033470;28;20136;-63
2023/06/11 10:28:23;;;;;;;6.22;5.40;;;;;;;;;;5032999;28;20111;-63
2023/06/11 10:30:54;;;;;;;6.72;5.03;;;;;;;;;;5036773;28;20049;-63
2023/06/11 10:33:21;;;;;;;6.57;5.15;;;;;;;;;;5053602;28;20067;-62
2023/06/11 10:35:48;;;;;;;5.60;4.85;;;;;;;;;;5052926;28;20175;-61
2023/06/11 10:38:16;;;;;;;5.90;5.15;;;;;;;;;;5052603;28;20056;-62
2023/06/11 10:40:45;;;;;;;6.70;5.32;;;;;;;;;;5052657;28;20106;-62
2023/06/11 10:43:21;;;;;;;6.13;5.07;;;;;;;;;;5052651;28;20516;-62
2023/06/11 10:46:01;;;;;;;6.25;5.22;;;;;;;;;;5052627;28;20468;-62
2023/06/11 10:48:29;;;;;;;5.28;4.20;;;;;;;;;;5052147;28;20052;-62
2023/06/11 10:51:00;;;;;;;5.70;4.57;;;;;;;;;;5052104;28;20049;-62
2023/06/11 10:53:36;;;;;;;6.57;4.72;;;;;;;;;;5052569;28;20049;-62
2023/06/11 10:56:03;;;;;;;6.53;4.70;;;;;;;;;;5052328;28;20456;-62
2023/06/11 10:58:31;;;;;;;6.72;4.80;;;;;;;;;;5052418;28;20060;-63
2023/06/11 11:00:59;;;;;;;6.47;5.15;;;;;;;;;;5052379;28;20557;-64
2023/06/11 11:03:30;;;;;;;6.60;5.18;;;;;;;;;;5043328;28;20107;-63
2023/06/11 11:05:58;;;;;;;6.72;4.88;;;;;;;;;;5032260;28;20058;-63
2023/06/11 11:08:25;;;;;;;10.40;5.13;;;;;;;;;;5031832;28;20053;-62
2023/06/11 11:10:59;;;;;;;6.72;4.90;;;;;;;;;;5031697;28;20049;-64
2023/06/11 11:13:26;;;;;;;8.88;4.80;;;;;;;;;;5031452;28;20060;-65
2023/06/11 11:15:53;;;;;;;6.53;4.68;;;;;;;;;;5032141;28;20111;-63
2023/06/11 11:18:20;;;;;;;5.68;4.70;;;;;;;;;;5032829;28;20072;-65
2023/06/11 11:20:47;;;;;;;5.30;4.80;;;;;;;;;;5051567;28;20072;-63
2023/06/11 11:23:14;;;;;;;6.25;4.45;;;;;;;;;;5051794;28;20057;-64
2023/06/11 11:25:42;;;;;;;6.63;4.97;;;;;;;;;;5051716;28;20366;-64
2023/06/11 11:28:12;;;;;;;7.47;5.13;;;;;;;;;;5051604;28;20053;-63
2023/06/11 11:30:40;;;;;;;9.73;6.03;;;;;;;;;;5046977;28;20067;-63
2023/06/11 11:33:06;;;;;;;6.38;4.97;;;;;;;;;;5027982;28;20053;-63
2023/06/11 11:35:33;;;;;;;8.05;5.18;;;;;;;;;;5012060;28;20046;-66
2023/06/11 11:38:00;;;;;;;7.07;5.20;;;;;;;;;;5011883;28;20069;-68
2023/06/11 11:40:29;;;;;;;7.55;5.10;;;;;;;;;;5011707;28;20050;-64
2023/06/11 11:42:57;;;;;;;6.47;4.70;;;;;;;;;;5011786;28;20491;-64
2023/06/11 11:45:32;;;;;;;5.82;5.22;;;;;;;;;;5021902;28;20053;-63
2023/06/11 11:48:00;;;;;;;7.40;5.22;;;;;;;;;;5046453;28;20563;-63
2023/06/11 11:50:30;;;;;;;6.97;5.43;;;;;;;;;;5049012;28;20057;-64
2023/06/11 11:53:03;;;;;;;6.57;5.10;;;;;;;;;;5031851;28;20430;-63
2023/06/11 11:55:31;;;;;;;6.25;5.00;;;;;;;;;;5031392;28;20060;-63
2023/06/11 11:58:06;;;;;;;7.45;5.40;;;;;;;;;;5033545;28;20054;-64
2023/06/11 12:00:35;;;;;;;6.43;4.90;;;;;;;;;;5031282;28;20053;-64
2023/06/11 12:03:08;;;;;;;6.10;5.23;;;;;;;;;;5035363;28;20073;-62
2023/06/11 12:05:35;;;;;;;18.35;10.60;;;;;;;;;;5035556;28;20084;-64
2023/06/11 12:08:02;;;;;;;32.10;19.30;;;;;;;;;;5035527;28;20053;-67
2023/06/11 12:10:28;;;;;;;16.92;11.95;;;;;;;;;;5035014;28;20108;-62
2023/06/11 12:12:55;;;;;;;12.77;8.30;;;;;;;;;;5035037;28;20108;-62
2023/06/11 12:15:22;;;;;;;8.13;6.00;;;;;;;;;;5034741;28;20433;-65
2023/06/11 12:17:51;;;;;;;9.48;6.47;;;;;;;;;;5034558;28;20046;-62
2023/06/11 12:20:18;;;;;;;6.73;5.60;;;;;;;;;;5034401;28;20506;-62
2023/06/11 12:22:45;;;;;;;7.13;5.65;;;;;;;;;;5034670;28;20103;-61
2023/06/11 12:25:12;;;;;;;6.78;5.43;;;;;;;;;;5034226;28;20064;-60
2023/06/11 12:27:38;;;;;;;7.80;5.90;;;;;;;;;;5035133;28;20049;-62
2023/06/11 12:30:06;;;;;;;7.90;5.50;;;;;;;;;;5034298;28;20057;-60
2023/06/11 12:32:34;;;;;;;7.30;5.60;;;;;;;;;;5034995;28;20049;-62
2023/06/11 12:35:02;;;;;;;6.68;5.28;;;;;;;;;;5040010;28;20049;-60
2023/06/11 12:37:29;;;;;;;6.20;5.30;;;;;;;;;;5040451;28;20120;-61
2023/06/11 12:39:56;;;;;;;6.57;5.45;;;;;;;;;;5034401;28;20143;-60
2023/06/11 12:42:23;;;;;;;7.88;5.50;;;;;;;;;;5034141;28;20049;-61
2023/06/11 12:44:50;;;;;;;8.20;5.68;;;;;;;;;;5030898;28;20073;-61
2023/06/11 12:47:17;;;;;;;6.10;5.18;;;;;;;;;;5026032;28;20045;-61
2023/06/11 12:49:45;;;;;;;5.88;4.95;;;;;;;;;;5033572;28;20705;-61
2023/06/11 12:52:13;;;;;;;6.13;4.90;;;;;;;;;;5034561;28;20053;-60
2023/06/11 12:54:42;;;;;;;6.55;5.38;;;;;;;;;;5033917;28;20088;-61
2023/06/11 12:57:11;;;;;;;5.88;5.15;;;;;;;;;;5021676;28;20050;-61
2023/06/11 12:59:37;;;;;;;5.60;4.50;;;;;;;;;;5021280;28;20068;-61
2023/06/11 13:02:05;;;;;;;6.18;4.35;;;;;;;;;;5034493;28;20049;-61
2023/06/11 13:04:32;;;;;;;6.15;4.75;;;;;;;;;;5034637;28;20487;-61
2023/06/11 13:06:58;;;;;;;6.82;5.40;;;;;;;;;;5028504;28;20050;-61
2023/06/11 13:09:27;;;;;;;5.85;4.80;;;;;;;;;;5018466;28;20049;-61
2023/06/11 13:11:54;;;;;;;6.82;4.85;;;;;;;;;;5022980;28;20441;-60
2023/06/11 13:14:21;;;;;;;6.75;4.70;;;;;;;;;;5026333;28;20049;-60
2023/06/11 13:16:48;;;;;;;6.88;5.20;;;;;;;;;;5025702;28;20521;-60
2023/06/11 13:19:15;;;;;;;6.15;4.53;;;;;;;;;;5019338;28;20096;-60
2023/06/11 13:21:42;;;;;;;5.55;4.65;;;;;;;;;;5013976;28;20057;-60
2023/06/11 13:24:09;;;;;;;7.90;5.10;;;;;;;;;;5013924;28;20046;-60
2023/06/11 13:26:37;;;;;;;6.35;4.97;;;;;;;;;;5014287;28;20065;-60
2023/06/11 13:29:07;;;;;;;5.55;4.50;;;;;;;;;;5029165;28;20050;-60
2023/06/11 13:31:34;;;;;;;5.63;4.63;;;;;;;;;;5033530;28;20053;-60
2023/06/11 13:34:01;;;;;;;6.43;4.85;;;;;;;;;;5033233;28;20050;-61
2023/06/11 13:36:29;;;;;;;6.10;4.45;;;;;;;;;;5033761;28;20053;-61
2023/06/11 13:38:56;;;;;;;5.55;5.00;;;;;;;;;;5033333;28;20157;-61
2023/06/11 13:41:23;;;;;;;5.82;4.30;;;;;;;;;;5033291;28;20057;-61
2023/06/11 13:43:51;;;;;;;5.90;4.80;;;;;;;;;;5034011;28;20402;-60
2023/06/11 13:46:18;;;;;;;6.00;4.85;;;;;;;;;;5032938;28;20111;-61
2023/06/11 13:48:45;;;;;;;6.85;5.38;;;;;;;;;;5029427;28;20046;-61
2023/06/11 13:51:12;;;;;;;5.95;4.50;;;;;;;;;;5033526;28;20057;-61
2023/06/11 13:53:39;;;;;;;5.53;4.47;;;;;;;;;;5033252;28;20053;-61
2023/06/11 13:56:06;;;;;;;7.32;4.68;;;;;;;;;;5033427;28;20042;-61
2023/06/11 13:58:33;;;;;;;6.40;4.47;;;;;;;;;;5030741;28;20046;-61
2023/06/11 14:01:01;;;;;;;6.22;4.63;;;;;;;;;;5031956;28;20057;-61
2023/06/11 14:03:28;;;;;;;6.38;4.57;;;;;;;;;;5033646;28;20075;-61
2023/06/11 14:05:56;;;;;;;4.90;4.15;;;;;;;;;;5033368;28;20050;-61
2023/06/11 14:08:22;;;;;;;5.22;4.68;;;;;;;;;;5033174;28;20057;-61
2023/06/11 14:10:52;;;;;;;7.97;4.45;;;;;;;;;;5033216;28;20560;-61
2023/06/11 14:13:19;;;;;;;;;;;;;;;;;;5033691;28;20061;-61
2023/06/11 14:15:46;;;;;;;4.55;3.80;;;;;;;;;;5032503;28;19929;-61
2023/06/11 14:18:14;;;;;;;5.78;4.07;;;;;;;;;;5041586;28;20045;-60
2023/06/11 14:20:40;;;;;;;5.80;4.55;;;;;;;;;;5053208;28;20103;-60
2023/06/11 14:23:07;;;;;;;5.47;3.88;;;;;;;;;;5050513;28;20044;-60
2023/06/11 14:25:34;;;;;;;5.07;4.28;;;;;;;;;;5032461;28;20064;-61
2023/06/11 14:28:01;;;;;;;4.80;4.22;;;;;;;;;;5032752;28;20144;-61
2023/06/11 14:30:28;;;;;;;5.20;4.63;;;;;;;;;;5032274;28;20061;-61
2023/06/11 14:32:55;;;;;;;5.55;4.65;;;;;;;;;;5032649;28;20133;-60
2023/06/11 14:35:23;;;;;;;6.20;4.63;;;;;;;;;;5048475;28;20049;-61
2023/06/11 14:37:50;;;;;;;5.00;4.50;;;;;;;;;;5052271;28;20549;-61
2023/06/11 14:40:16;;;;;;;6.80;5.15;;;;;;;;;;5052108;28;20049;-60